sensor_id;sensor_type;location;lat;lon;timestamp;P1;durP1;ratioP1;P2;durP2;ratioP2
78167;SDS011;67410;42.698;23.378;2023-04-03T00:00:16;69.22;;;36.10;;
78167;SDS011;67410;42.698;23.378;2023-04-03T00:02:42;90.38;;;46.85;;
78167;SDS011;67410;42.698;23.378;2023-04-03T00:05:08;151.88;;;78.32;;
78167;SDS011;67410;42.698;23.378;2023-04-03T00:07:34;169.18;;;93.03;;
78167;SDS011;67410;42.698;23.378;2023-04-03T00:10:01;135.68;;;77.32;;
78167;SDS011;67410;42.698;23.378;2023-04-03T00:12:27;157.40;;;88.28;;
78167;SDS011;67410;42.698;23.378;2023-04-03T00:14:53;151.40;;;86.78;;
78167;SDS011;67410;42.698;23.378;2023-04-03T00:17:19;160.15;;;91.93;;
78167;SDS011;67410;42.698;23.378;2023-04-03T00:19:45;164.15;;;89.13;;
78167;SDS011;67410;42.698;23.378;2023-04-03T00:22:11;159.68;;;88.07;;
78167;SDS011;67410;42.698;23.378;2023-04-03T00:24:37;132.35;;;71.72;;
78167;SDS011;67410;42.698;23.378;2023-04-03T00:27:04;141.85;;;75.65;;
78167;SDS011;67410;42.698;23.378;2023-04-03T00:29:30;137.50;;;82.25;;
78167;SDS011;67410;42.698;23.378;2023-04-03T00:31:56;135.95;;;77.07;;
78167;SDS011;67410;42.698;23.378;2023-04-03T00:34:22;153.27;;;79.70;;
78167;SDS011;67410;42.698;23.378;2023-04-03T00:36:49;136.30;;;74.60;;
78167;SDS011;67410;42.698;23.378;2023-04-03T00:39:15;145.57;;;82.75;;
78167;SDS011;67410;42.698;23.378;2023-04-03T00:41:41;137.25;;;74.72;;
78167;SDS011;67410;42.698;23.378;2023-04-03T00:44:20;113.60;;;61.72;;
78167;SDS011;67410;42.698;23.378;2023-04-03T00:46:48;114.03;;;60.33;;
78167;SDS011;67410;42.698;23.378;2023-04-03T00:49:14;113.60;;;64.30;;
78167;SDS011;67410;42.698;23.378;2023-04-03T00:51:40;112.85;;;63.45;;
78167;SDS011;67410;42.698;23.378;2023-04-03T00:54:07;108.78;;;60.60;;
78167;SDS011;67410;42.698;23.378;2023-04-03T00:56:34;108.65;;;62.47;;
78167;SDS011;67410;42.698;23.378;2023-04-03T00:59:06;113.70;;;63.40;;
78167;SDS011;67410;42.698;23.378;2023-04-03T01:07:11;100.05;;;52.30;;
78167;SDS011;67410;42.698;23.378;2023-04-03T01:09:38;110.47;;;57.53;;
78167;SDS011;67410;42.698;23.378;2023-04-03T01:12:22;104.07;;;55.28;;
78167;SDS011;67410;42.698;23.378;2023-04-03T01:14:52;91.68;;;52.70;;
78167;SDS011;67410;42.698;23.378;2023-04-03T01:17:24;94.38;;;49.22;;
78167;SDS011;67410;42.698;23.378;2023-04-03T01:19:57;88.10;;;45.90;;
78167;SDS011;67410;42.698;23.378;2023-04-03T01:25:32;82.00;;;37.47;;
78167;SDS011;67410;42.698;23.378;2023-04-03T01:27:59;77.22;;;38.92;;
78167;SDS011;67410;42.698;23.378;2023-04-03T01:30:28;57.03;;;28.55;;
78167;SDS011;67410;42.698;23.378;2023-04-03T01:32:58;78.00;;;40.55;;
78167;SDS011;67410;42.698;23.378;2023-04-03T01:35:25;74.35;;;39.30;;
78167;SDS011;67410;42.698;23.378;2023-04-03T01:37:51;64.63;;;35.65;;
78167;SDS011;67410;42.698;23.378;2023-04-03T01:40:17;53.20;;;27.13;;
78167;SDS011;67410;42.698;23.378;2023-04-03T01:42:43;40.38;;;20.85;;
78167;SDS011;67410;42.698;23.378;2023-04-03T01:45:10;30.00;;;15.85;;
78167;SDS011;67410;42.698;23.378;2023-04-03T01:47:36;31.20;;;15.73;;
78167;SDS011;67410;42.698;23.378;2023-04-03T01:50:02;25.85;;;14.82;;
78167;SDS011;67410;42.698;23.378;2023-04-03T01:52:29;16.63;;;9.82;;
78167;SDS011;67410;42.698;23.378;2023-04-03T01:54:56;19.63;;;8.40;;
78167;SDS011;67410;42.698;23.378;2023-04-03T01:57:22;14.23;;;8.00;;
78167;SDS011;67410;42.698;23.378;2023-04-03T01:59:48;17.13;;;7.28;;
78167;SDS011;67410;42.698;23.378;2023-04-03T02:02:14;10.70;;;5.75;;
78167;SDS011;67410;42.698;23.378;2023-04-03T02:04:40;18.33;;;8.63;;
78167;SDS011;67410;42.698;23.378;2023-04-03T02:07:06;15.40;;;8.57;;
78167;SDS011;67410;42.698;23.378;2023-04-03T02:09:32;17.90;;;9.63;;
78167;SDS011;67410;42.698;23.378;2023-04-03T02:11:59;13.15;;;7.18;;
78167;SDS011;67410;42.698;23.378;2023-04-03T02:14:25;17.60;;;7.15;;
78167;SDS011;67410;42.698;23.378;2023-04-03T02:16:53;11.43;;;7.00;;
78167;SDS011;67410;42.698;23.378;2023-04-03T02:19:19;12.00;;;6.35;;
78167;SDS011;67410;42.698;23.378;2023-04-03T02:21:45;12.27;;;6.20;;
78167;SDS011;67410;42.698;23.378;2023-04-03T02:24:12;8.48;;;5.85;;
78167;SDS011;67410;42.698;23.378;2023-04-03T02:26:38;13.68;;;8.02;;
78167;SDS011;67410;42.698;23.378;2023-04-03T02:29:04;13.40;;;7.13;;
78167;SDS011;67410;42.698;23.378;2023-04-03T02:31:30;15.70;;;7.63;;
78167;SDS011;67410;42.698;23.378;2023-04-03T02:33:56;20.55;;;8.43;;
78167;SDS011;67410;42.698;23.378;2023-04-03T02:36:22;12.50;;;7.07;;
78167;SDS011;67410;42.698;23.378;2023-04-03T02:38:48;17.67;;;7.95;;
78167;SDS011;67410;42.698;23.378;2023-04-03T02:41:15;19.27;;;8.95;;
78167;SDS011;67410;42.698;23.378;2023-04-03T02:43:41;22.42;;;10.32;;
78167;SDS011;67410;42.698;23.378;2023-04-03T02:46:07;18.45;;;10.77;;
78167;SDS011;67410;42.698;23.378;2023-04-03T02:48:34;15.35;;;8.85;;
78167;SDS011;67410;42.698;23.378;2023-04-03T02:51:00;28.00;;;15.18;;
78167;SDS011;67410;42.698;23.378;2023-04-03T02:53:26;13.45;;;7.90;;
78167;SDS011;67410;42.698;23.378;2023-04-03T02:55:52;28.35;;;13.88;;
78167;SDS011;67410;42.698;23.378;2023-04-03T02:58:19;26.65;;;11.38;;
78167;SDS011;67410;42.698;23.378;2023-04-03T03:00:45;28.98;;;11.88;;
78167;SDS011;67410;42.698;23.378;2023-04-03T03:03:11;25.77;;;12.57;;
78167;SDS011;67410;42.698;23.378;2023-04-03T03:05:39;30.48;;;14.25;;
78167;SDS011;67410;42.698;23.378;2023-04-03T03:08:05;29.42;;;15.43;;
78167;SDS011;67410;42.698;23.378;2023-04-03T03:10:31;34.28;;;14.55;;
78167;SDS011;67410;42.698;23.378;2023-04-03T03:12:57;26.10;;;13.88;;
78167;SDS011;67410;42.698;23.378;2023-04-03T03:15:23;30.70;;;15.63;;
78167;SDS011;67410;42.698;23.378;2023-04-03T03:17:49;29.52;;;14.15;;
78167;SDS011;67410;42.698;23.378;2023-04-03T03:20:16;28.17;;;13.27;;
78167;SDS011;67410;42.698;23.378;2023-04-03T03:22:42;32.22;;;14.63;;
78167;SDS011;67410;42.698;23.378;2023-04-03T03:25:08;28.50;;;14.75;;
78167;SDS011;67410;42.698;23.378;2023-04-03T03:27:35;24.17;;;12.20;;
78167;SDS011;67410;42.698;23.378;2023-04-03T03:30:01;16.70;;;10.18;;
78167;SDS011;67410;42.698;23.378;2023-04-03T03:32:27;16.90;;;10.30;;
78167;SDS011;67410;42.698;23.378;2023-04-03T03:34:53;22.10;;;11.80;;
78167;SDS011;67410;42.698;23.378;2023-04-03T03:37:19;21.83;;;11.40;;
78167;SDS011;67410;42.698;23.378;2023-04-03T03:39:46;19.27;;;11.18;;
78167;SDS011;67410;42.698;23.378;2023-04-03T03:42:12;22.42;;;12.45;;
78167;SDS011;67410;42.698;23.378;2023-04-03T03:44:38;28.30;;;10.93;;
78167;SDS011;67410;42.698;23.378;2023-04-03T03:47:04;23.50;;;10.52;;
78167;SDS011;67410;42.698;23.378;2023-04-03T03:49:31;20.10;;;10.60;;
78167;SDS011;67410;42.698;23.378;2023-04-03T03:51:57;25.20;;;11.15;;
78167;SDS011;67410;42.698;23.378;2023-04-03T03:54:24;22.02;;;10.48;;
78167;SDS011;67410;42.698;23.378;2023-04-03T03:56:50;20.08;;;8.70;;
78167;SDS011;67410;42.698;23.378;2023-04-03T03:59:16;19.70;;;12.27;;
78167;SDS011;67410;42.698;23.378;2023-04-03T04:01:43;24.25;;;12.95;;
78167;SDS011;67410;42.698;23.378;2023-04-03T04:04:09;22.02;;;11.82;;
78167;SDS011;67410;42.698;23.378;2023-04-03T04:06:35;23.23;;;11.80;;
78167;SDS011;67410;42.698;23.378;2023-04-03T04:09:01;15.93;;;10.38;;
78167;SDS011;67410;42.698;23.378;2023-04-03T04:11:27;18.92;;;11.75;;
78167;SDS011;67410;42.698;23.378;2023-04-03T04:13:54;20.83;;;11.10;;
78167;SDS011;67410;42.698;23.378;2023-04-03T04:16:20;18.00;;;9.63;;
78167;SDS011;67410;42.698;23.378;2023-04-03T15:49:44;84.60;;;48.63;;
78167;SDS011;67410;42.698;23.378;2023-04-03T15:52:11;67.88;;;39.08;;
78167;SDS011;67410;42.698;23.378;2023-04-03T15:54:37;44.22;;;24.63;;
78167;SDS011;67410;42.698;23.378;2023-04-03T15:57:04;62.05;;;30.55;;
78167;SDS011;67410;42.698;23.378;2023-04-03T15:59:30;52.42;;;28.02;;
78167;SDS011;67410;42.698;23.378;2023-04-03T16:01:57;44.38;;;19.77;;
78167;SDS011;67410;42.698;23.378;2023-04-03T16:04:26;47.08;;;25.83;;
78167;SDS011;67410;42.698;23.378;2023-04-03T16:06:52;54.58;;;25.42;;
78167;SDS011;67410;42.698;23.378;2023-04-03T16:09:18;65.97;;;29.02;;
78167;SDS011;67410;42.698;23.378;2023-04-03T16:11:45;45.95;;;21.02;;
78167;SDS011;67410;42.698;23.378;2023-04-03T16:14:11;64.90;;;26.63;;
78167;SDS011;67410;42.698;23.378;2023-04-03T16:16:37;30.13;;;14.75;;
78167;SDS011;67410;42.698;23.378;2023-04-03T16:19:04;24.05;;;15.38;;
78167;SDS011;67410;42.698;23.378;2023-04-03T16:21:31;31.58;;;18.85;;
78167;SDS011;67410;42.698;23.378;2023-04-03T16:23:58;61.28;;;31.05;;
78167;SDS011;67410;42.698;23.378;2023-04-03T16:26:25;33.28;;;18.92;;
78167;SDS011;67410;42.698;23.378;2023-04-03T16:28:52;21.80;;;13.07;;
78167;SDS011;67410;42.698;23.378;2023-04-03T16:31:18;39.15;;;19.63;;
78167;SDS011;67410;42.698;23.378;2023-04-03T16:33:45;37.58;;;20.92;;
78167;SDS011;67410;42.698;23.378;2023-04-03T16:36:13;55.65;;;25.23;;
78167;SDS011;67410;42.698;23.378;2023-04-03T16:38:39;41.13;;;19.60;;
78167;SDS011;67410;42.698;23.378;2023-04-03T16:41:05;38.67;;;17.90;;
78167;SDS011;67410;42.698;23.378;2023-04-03T16:43:31;44.20;;;23.00;;
78167;SDS011;67410;42.698;23.378;2023-04-03T16:45:58;38.65;;;19.10;;
78167;SDS011;67410;42.698;23.378;2023-04-03T16:48:25;39.63;;;19.42;;
78167;SDS011;67410;42.698;23.378;2023-04-03T16:50:51;30.67;;;16.15;;
78167;SDS011;67410;42.698;23.378;2023-04-03T16:53:22;32.33;;;18.70;;
78167;SDS011;67410;42.698;23.378;2023-04-03T16:55:49;32.67;;;20.25;;
78167;SDS011;67410;42.698;23.378;2023-04-03T16:58:16;48.53;;;33.15;;
78167;SDS011;67410;42.698;23.378;2023-04-03T17:00:42;28.58;;;13.52;;
78167;SDS011;67410;42.698;23.378;2023-04-03T17:03:09;37.40;;;26.00;;
78167;SDS011;67410;42.698;23.378;2023-04-03T17:05:36;39.08;;;24.08;;
78167;SDS011;67410;42.698;23.378;2023-04-03T17:08:02;59.88;;;33.75;;
78167;SDS011;67410;42.698;23.378;2023-04-03T17:10:28;62.60;;;33.75;;
78167;SDS011;67410;42.698;23.378;2023-04-03T17:12:55;46.58;;;27.98;;
78167;SDS011;67410;42.698;23.378;2023-04-03T17:15:22;53.38;;;27.60;;
78167;SDS011;67410;42.698;23.378;2023-04-03T17:17:50;31.25;;;15.52;;
78167;SDS011;67410;42.698;23.378;2023-04-03T17:20:17;47.78;;;24.85;;
78167;SDS011;67410;42.698;23.378;2023-04-03T17:22:44;42.80;;;21.25;;
78167;SDS011;67410;42.698;23.378;2023-04-03T17:25:10;39.08;;;21.08;;
78167;SDS011;67410;42.698;23.378;2023-04-03T17:27:36;53.92;;;27.60;;
78167;SDS011;67410;42.698;23.378;2023-04-03T17:30:03;41.63;;;22.02;;
78167;SDS011;67410;42.698;23.378;2023-04-03T17:32:30;32.80;;;18.13;;
78167;SDS011;67410;42.698;23.378;2023-04-03T17:34:56;48.45;;;27.05;;
78167;SDS011;67410;42.698;23.378;2023-04-03T17:37:22;38.00;;;21.02;;
78167;SDS011;67410;42.698;23.378;2023-04-03T17:39:49;42.35;;;21.05;;
78167;SDS011;67410;42.698;23.378;2023-04-03T17:42:15;65.28;;;37.15;;
78167;SDS011;67410;42.698;23.378;2023-04-03T17:44:41;56.33;;;31.65;;
78167;SDS011;67410;42.698;23.378;2023-04-03T17:47:07;52.05;;;25.42;;
78167;SDS011;67410;42.698;23.378;2023-04-03T17:49:33;61.60;;;28.42;;
78167;SDS011;67410;42.698;23.378;2023-04-03T17:51:59;63.05;;;25.92;;
78167;SDS011;67410;42.698;23.378;2023-04-03T17:54:25;83.28;;;33.22;;
78167;SDS011;67410;42.698;23.378;2023-04-03T17:56:51;61.70;;;29.67;;
78167;SDS011;67410;42.698;23.378;2023-04-03T17:59:18;62.17;;;30.52;;
78167;SDS011;67410;42.698;23.378;2023-04-03T18:01:44;52.42;;;26.58;;
78167;SDS011;67410;42.698;23.378;2023-04-03T18:04:12;104.88;;;66.20;;
78167;SDS011;67410;42.698;23.378;2023-04-03T18:06:40;96.00;;;62.13;;
78167;SDS011;67410;42.698;23.378;2023-04-03T18:12:00;46.40;;;23.85;;
78167;SDS011;67410;42.698;23.378;2023-04-03T18:14:28;49.58;;;26.95;;
78167;SDS011;67410;42.698;23.378;2023-04-03T18:16:55;57.65;;;29.67;;
78167;SDS011;67410;42.698;23.378;2023-04-03T18:19:22;35.80;;;19.95;;
78167;SDS011;67410;42.698;23.378;2023-04-03T18:21:50;72.15;;;37.33;;
78167;SDS011;67410;42.698;23.378;2023-04-03T18:24:19;114.20;;;72.90;;
78167;SDS011;67410;42.698;23.378;2023-04-03T18:26:48;118.32;;;81.57;;
78167;SDS011;67410;42.698;23.378;2023-04-03T18:29:18;124.43;;;83.57;;
78167;SDS011;67410;42.698;23.378;2023-04-03T18:31:46;193.55;;;123.38;;
78167;SDS011;67410;42.698;23.378;2023-04-03T18:34:15;213.93;;;130.95;;
78167;SDS011;67410;42.698;23.378;2023-04-03T18:36:41;220.52;;;130.80;;
78167;SDS011;67410;42.698;23.378;2023-04-03T18:39:07;182.75;;;110.38;;
78167;SDS011;67410;42.698;23.378;2023-04-03T18:41:34;60.45;;;34.95;;
78167;SDS011;67410;42.698;23.378;2023-04-03T18:44:02;70.68;;;44.30;;
78167;SDS011;67410;42.698;23.378;2023-04-03T18:46:31;80.13;;;46.75;;
78167;SDS011;67410;42.698;23.378;2023-04-03T18:48:58;79.03;;;45.67;;
78167;SDS011;67410;42.698;23.378;2023-04-03T18:51:25;65.35;;;37.80;;
78167;SDS011;67410;42.698;23.378;2023-04-03T18:53:52;54.28;;;32.88;;
78167;SDS011;67410;42.698;23.378;2023-04-03T18:56:18;73.53;;;41.92;;
78167;SDS011;67410;42.698;23.378;2023-04-03T18:58:44;81.60;;;49.85;;
78167;SDS011;67410;42.698;23.378;2023-04-03T19:01:10;50.38;;;24.77;;
78167;SDS011;67410;42.698;23.378;2023-04-03T19:03:36;50.17;;;28.05;;
78167;SDS011;67410;42.698;23.378;2023-04-03T19:06:02;111.43;;;66.57;;
78167;SDS011;67410;42.698;23.378;2023-04-03T19:08:30;178.70;;;111.10;;
78167;SDS011;67410;42.698;23.378;2023-04-03T19:10:56;228.50;;;133.48;;
78167;SDS011;67410;42.698;23.378;2023-04-03T19:13:22;205.50;;;125.63;;
78167;SDS011;67410;42.698;23.378;2023-04-03T19:15:48;212.95;;;128.73;;
78167;SDS011;67410;42.698;23.378;2023-04-03T19:18:17;167.10;;;99.30;;
78167;SDS011;67410;42.698;23.378;2023-04-03T19:20:43;105.90;;;56.05;;
78167;SDS011;67410;42.698;23.378;2023-04-03T19:23:09;61.47;;;35.45;;
78167;SDS011;67410;42.698;23.378;2023-04-03T19:25:37;45.95;;;24.33;;
78167;SDS011;67410;42.698;23.378;2023-04-03T19:28:03;48.05;;;24.60;;
78167;SDS011;67410;42.698;23.378;2023-04-03T19:30:29;36.42;;;17.17;;
78167;SDS011;67410;42.698;23.378;2023-04-03T19:32:56;55.58;;;34.05;;
78167;SDS011;67410;42.698;23.378;2023-04-03T19:35:22;66.95;;;34.08;;
78167;SDS011;67410;42.698;23.378;2023-04-03T19:37:49;30.38;;;15.05;;
78167;SDS011;67410;42.698;23.378;2023-04-03T19:40:17;91.57;;;55.50;;
78167;SDS011;67410;42.698;23.378;2023-04-03T19:42:44;115.93;;;70.35;;
78167;SDS011;67410;42.698;23.378;2023-04-03T19:45:10;124.28;;;72.03;;
78167;SDS011;67410;42.698;23.378;2023-04-03T19:47:39;63.03;;;35.75;;
78167;SDS011;67410;42.698;23.378;2023-04-03T19:50:06;52.83;;;24.92;;
78167;SDS011;67410;42.698;23.378;2023-04-03T19:52:32;72.97;;;30.67;;
78167;SDS011;67410;42.698;23.378;2023-04-03T19:54:58;80.10;;;32.47;;
78167;SDS011;67410;42.698;23.378;2023-04-03T19:57:25;66.82;;;29.45;;
78167;SDS011;67410;42.698;23.378;2023-04-03T19:59:53;45.22;;;20.48;;
78167;SDS011;67410;42.698;23.378;2023-04-03T20:02:19;68.43;;;32.92;;
78167;SDS011;67410;42.698;23.378;2023-04-03T20:04:46;45.33;;;22.00;;
78167;SDS011;67410;42.698;23.378;2023-04-03T20:07:12;64.28;;;29.58;;
78167;SDS011;67410;42.698;23.378;2023-04-03T20:09:38;50.97;;;19.52;;
78167;SDS011;67410;42.698;23.378;2023-04-03T20:12:05;39.85;;;18.52;;
78167;SDS011;67410;42.698;23.378;2023-04-03T20:14:34;50.70;;;22.45;;
78167;SDS011;67410;42.698;23.378;2023-04-03T20:17:02;48.88;;;22.75;;
78167;SDS011;67410;42.698;23.378;2023-04-03T20:19:29;49.25;;;21.13;;
78167;SDS011;67410;42.698;23.378;2023-04-03T20:21:56;46.28;;;21.48;;
78167;SDS011;67410;42.698;23.378;2023-04-03T20:24:25;31.40;;;15.57;;
78167;SDS011;67410;42.698;23.378;2023-04-03T20:26:54;32.28;;;13.88;;
78167;SDS011;67410;42.698;23.378;2023-04-03T20:29:25;24.90;;;10.15;;
78167;SDS011;67410;42.698;23.378;2023-04-03T20:31:51;34.55;;;18.55;;
78167;SDS011;67410;42.698;23.378;2023-04-03T20:34:18;92.22;;;42.90;;
78167;SDS011;67410;42.698;23.378;2023-04-03T20:36:47;104.43;;;57.70;;
78167;SDS011;67410;42.698;23.378;2023-04-03T20:39:13;39.47;;;21.10;;
78167;SDS011;67410;42.698;23.378;2023-04-03T20:41:39;59.78;;;31.35;;
78167;SDS011;67410;42.698;23.378;2023-04-03T20:44:05;45.38;;;22.90;;
78167;SDS011;67410;42.698;23.378;2023-04-03T20:46:31;52.13;;;24.70;;
78167;SDS011;67410;42.698;23.378;2023-04-03T20:48:57;37.03;;;18.45;;
78167;SDS011;67410;42.698;23.378;2023-04-03T20:51:24;39.35;;;20.92;;
78167;SDS011;67410;42.698;23.378;2023-04-03T20:53:53;31.25;;;15.75;;
78167;SDS011;67410;42.698;23.378;2023-04-03T20:56:19;22.50;;;11.68;;
78167;SDS011;67410;42.698;23.378;2023-04-03T20:58:45;23.58;;;13.43;;
78167;SDS011;67410;42.698;23.378;2023-04-03T21:03:45;16.88;;;9.15;;
78167;SDS011;67410;42.698;23.378;2023-04-03T21:21:06;17.63;;;8.38;;
78167;SDS011;67410;42.698;23.378;2023-04-03T21:23:48;15.95;;;7.82;;
78167;SDS011;67410;42.698;23.378;2023-04-03T21:26:16;21.60;;;10.35;;
78167;SDS011;67410;42.698;23.378;2023-04-03T21:28:43;21.35;;;10.10;;
78167;SDS011;67410;42.698;23.378;2023-04-03T21:31:09;50.25;;;20.35;;
78167;SDS011;67410;42.698;23.378;2023-04-03T21:33:36;30.67;;;12.82;;
78167;SDS011;67410;42.698;23.378;2023-04-03T21:36:02;25.45;;;10.30;;
78167;SDS011;67410;42.698;23.378;2023-04-03T21:38:29;28.08;;;14.25;;
78167;SDS011;67410;42.698;23.378;2023-04-03T21:40:56;53.50;;;20.33;;
78167;SDS011;67410;42.698;23.378;2023-04-03T21:43:25;53.58;;;20.17;;
78167;SDS011;67410;42.698;23.378;2023-04-03T21:45:55;45.33;;;16.10;;
78167;SDS011;67410;42.698;23.378;2023-04-03T21:48:23;27.75;;;13.02;;
78167;SDS011;67410;42.698;23.378;2023-04-03T21:51:02;40.35;;;14.77;;
78167;SDS011;67410;42.698;23.378;2023-04-03T21:53:29;47.63;;;18.23;;
78167;SDS011;67410;42.698;23.378;2023-04-03T21:55:58;33.80;;;14.93;;
78167;SDS011;67410;42.698;23.378;2023-04-03T21:58:27;31.55;;;13.95;;
78167;SDS011;67410;42.698;23.378;2023-04-03T22:01:06;27.65;;;13.25;;
78167;SDS011;67410;42.698;23.378;2023-04-03T22:03:36;22.05;;;10.00;;
78167;SDS011;67410;42.698;23.378;2023-04-03T22:06:03;17.95;;;9.88;;
78167;SDS011;67410;42.698;23.378;2023-04-03T22:08:30;18.92;;;9.20;;
78167;SDS011;67410;42.698;23.378;2023-04-03T22:11:00;18.52;;;9.35;;
78167;SDS011;67410;42.698;23.378;2023-04-03T22:13:33;24.70;;;10.10;;
78167;SDS011;67410;42.698;23.378;2023-04-03T22:16:00;17.45;;;8.57;;
78167;SDS011;67410;42.698;23.378;2023-04-03T22:18:27;15.70;;;9.10;;
78167;SDS011;67410;42.698;23.378;2023-04-03T22:20:54;20.85;;;10.60;;
78167;SDS011;67410;42.698;23.378;2023-04-03T22:23:21;22.10;;;10.82;;
78167;SDS011;67410;42.698;23.378;2023-04-03T22:28:32;60.97;;;23.60;;
78167;SDS011;67410;42.698;23.378;2023-04-03T22:31:00;34.90;;;15.80;;
78167;SDS011;67410;42.698;23.378;2023-04-03T22:33:28;70.85;;;36.83;;
78167;SDS011;67410;42.698;23.378;2023-04-03T22:35:55;43.70;;;20.58;;
78167;SDS011;67410;42.698;23.378;2023-04-03T22:38:21;45.60;;;19.92;;
78167;SDS011;67410;42.698;23.378;2023-04-03T22:40:54;35.85;;;16.23;;
78167;SDS011;67410;42.698;23.378;2023-04-03T22:43:25;41.20;;;17.38;;
78167;SDS011;67410;42.698;23.378;2023-04-03T22:45:52;36.60;;;16.65;;
78167;SDS011;67410;42.698;23.378;2023-04-03T22:48:20;35.83;;;14.55;;
78167;SDS011;67410;42.698;23.378;2023-04-03T22:50:46;31.55;;;14.32;;
78167;SDS011;67410;42.698;23.378;2023-04-03T22:53:13;30.48;;;13.73;;
78167;SDS011;67410;42.698;23.378;2023-04-03T22:55:40;18.80;;;9.27;;
78167;SDS011;67410;42.698;23.378;2023-04-03T22:58:06;12.57;;;7.07;;
78167;SDS011;67410;42.698;23.378;2023-04-03T23:00:34;14.65;;;8.52;;
78167;SDS011;67410;42.698;23.378;2023-04-03T23:03:00;23.17;;;10.38;;
78167;SDS011;67410;42.698;23.378;2023-04-03T23:05:27;30.02;;;12.73;;
78167;SDS011;67410;42.698;23.378;2023-04-03T23:07:54;45.97;;;19.40;;
78167;SDS011;67410;42.698;23.378;2023-04-03T23:10:20;39.13;;;17.33;;
78167;SDS011;67410;42.698;23.378;2023-04-03T23:12:47;23.52;;;12.38;;
78167;SDS011;67410;42.698;23.378;2023-04-03T23:15:13;27.02;;;12.40;;
78167;SDS011;67410;42.698;23.378;2023-04-03T23:17:39;27.42;;;12.82;;
78167;SDS011;67410;42.698;23.378;2023-04-03T23:20:07;20.38;;;10.18;;
78167;SDS011;67410;42.698;23.378;2023-04-03T23:22:33;19.30;;;9.25;;
